Time;durP1;ratioP1;P1;durP2;ratioP2;P2;SDS_P1;SDS_P2;PMS_P1;PMS_P2;Temp;Humidity;BMP_temperature;BMP_pressure;BME280_temperature;BME280_humidity;BME280_pressure;Samples;Min_cycle;Max_cycle;Signal;HPM_P1;HPM_P2
2022/02/16 00:00:26;;;;;;;;;;;7.80;99.90;;;;;;5088503;28;19916;-75
2022/02/16 00:02:52;;;;;;;;;;;7.80;99.90;;;;;;5078237;28;19921;-75
2022/02/16 00:05:18;;;;;;;;;;;7.80;99.90;;;;;;5070352;28;19963;-78
2022/02/16 00:07:44;;;;;;;;;;;7.80;99.90;;;;;;5066777;28;19913;-75
2022/02/16 00:10:11;;;;;;;;;;;7.70;99.90;;;;;;5065034;28;19923;-76
2022/02/16 00:12:37;;;;;;;;;;;7.70;99.90;;;;;;5057427;28;19919;-75
2022/02/16 00:15:05;;;;;;;;;;;7.70;99.90;;;;;;5060611;28;19916;-75
2022/02/16 00:17:31;;;;;;;;;;;7.80;99.90;;;;;;5074435;28;19923;-75
2022/02/16 00:19:57;;;;;;;;;;;7.80;99.90;;;;;;5071971;28;20234;-75
2022/02/16 00:22:22;;;;;;;;;;;7.80;99.90;;;;;;5053966;28;19984;-74
2022/02/16 00:24:48;;;;;;;;;;;7.80;99.90;;;;;;5055565;28;20385;-75
2022/02/16 00:27:13;;;;;;;;;;;7.80;99.90;;;;;;5069533;28;19917;-74
2022/02/16 00:29:39;;;;;;;;;;;7.80;99.90;;;;;;5064196;28;19913;-75
2022/02/16 00:32:05;;;;;;;;;;;7.80;99.90;;;;;;5068731;28;19913;-75
2022/02/16 00:34:31;;;;;;;;;;;7.80;99.90;;;;;;5061263;28;19919;-75
2022/02/16 00:36:56;;;;;;;;;;;7.90;99.90;;;;;;5067340;28;19912;-74
2022/02/16 00:39:22;;;;;;;;;;;8.00;99.90;;;;;;5059091;28;19913;-75
2022/02/16 00:41:48;;;;;;;;;;;8.00;99.90;;;;;;5076734;28;20316;-74
2022/02/16 00:44:14;;;;;;;;;;;8.00;99.90;;;;;;5060443;28;19912;-76
2022/02/16 00:46:39;;;;;;;;;;;8.10;99.90;;;;;;5071228;28;19924;-75
2022/02/16 00:49:05;;;;;;;;;;;8.10;99.90;;;;;;5076009;28;19951;-75
2022/02/16 00:51:30;;;;;;;;;;;8.00;99.90;;;;;;5075118;28;20054;-74
2022/02/16 00:53:56;;;;;;;;;;;8.00;99.90;;;;;;5058993;28;20007;-74
2022/02/16 00:56:21;;;;;;;;;;;7.90;99.90;;;;;;5076367;28;19920;-75
2022/02/16 00:58:47;;;;;;;;;;;7.90;99.90;;;;;;5058080;28;19913;-75
2022/02/16 01:01:13;;;;;;;;;;;7.90;99.90;;;;;;5063656;28;20286;-75
2022/02/16 01:03:38;;;;;;;;;;;7.90;99.90;;;;;;5078588;28;19958;-74
2022/02/16 01:06:04;;;;;;;;;;;7.90;99.90;;;;;;5062680;28;19939;-74
2022/02/16 01:08:30;;;;;;;;;;;7.90;99.90;;;;;;5076666;28;20320;-74
2022/02/16 01:10:55;;;;;;;;;;;8.00;99.90;;;;;;5058134;28;19927;-75
2022/02/16 01:13:24;;;;;;;;;;;8.00;99.90;;;;;;5076608;28;19916;-75
2022/02/16 01:15:50;;;;;;;;;;;8.00;99.90;;;;;;5062292;28;20011;-74
2022/02/16 01:18:16;;;;;;;;;;;7.90;99.90;;;;;;5075637;28;19939;-74
2022/02/16 01:20:42;;;;;;;;;;;7.80;99.90;;;;;;5064561;28;20346;-74
2022/02/16 01:23:08;;;;;;;;;;;7.90;99.90;;;;;;5074609;28;19913;-74
2022/02/16 01:25:34;;;;;;;;;;;7.80;99.90;;;;;;5060519;28;20025;-74
2022/02/16 01:28:00;;;;;;;;;;;7.70;99.90;;;;;;5076100;28;19920;-74
2022/02/16 01:30:26;;;;;;;;;;;7.80;99.90;;;;;;5059759;28;20262;-75
2022/02/16 01:32:52;;;;;;;;;;;7.80;99.90;;;;;;5061405;28;19912;-74
2022/02/16 01:35:18;;;;;;;;;;;7.90;99.90;;;;;;5072437;28;19985;-74
2022/02/16 01:37:43;;;;;;;;;;;7.90;99.90;;;;;;5073512;28;19919;-75
2022/02/16 01:40:09;;;;;;;;;;;7.90;99.90;;;;;;5070559;28;20354;-75
2022/02/16 01:42:35;;;;;;;;;;;7.80;99.90;;;;;;5062254;28;19936;-75
2022/02/16 01:45:01;;;;;;;;;;;7.80;99.90;;;;;;5070516;28;19912;-74
2022/02/16 01:47:26;;;;;;;;;;;7.80;99.90;;;;;;5077485;28;19962;-75
2022/02/16 01:49:52;;;;;;;;;;;7.80;99.90;;;;;;5078930;28;20011;-74
2022/02/16 01:52:18;;;;;;;;;;;7.80;99.90;;;;;;5052265;28;19917;-74
2022/02/16 01:54:44;;;;;;;;;;;7.70;99.90;;;;;;5068145;28;19912;-75
2022/02/16 01:57:10;;;;;;;;;;;7.70;99.90;;;;;;5072977;28;20293;-75
2022/02/16 01:59:36;;;;;;;;;;;7.70;99.90;;;;;;5057789;28;19912;-74
2022/02/16 02:02:02;;;;;;;;;;;7.70;99.90;;;;;;5075464;28;20396;-75
2022/02/16 02:04:27;;;;;;;;;;;7.70;99.90;;;;;;5073818;28;19912;-74
2022/02/16 02:06:53;;;;;;;;;;;7.70;99.90;;;;;;5062426;28;19921;-74
2022/02/16 02:09:19;;;;;;;;;;;7.60;99.90;;;;;;5060051;28;19963;-74
2022/02/16 02:11:44;;;;;;;;;;;7.60;99.90;;;;;;5063524;28;20042;-74
2022/02/16 02:14:11;;;;;;;;;;;7.60;99.90;;;;;;5068995;28;19917;-74
2022/02/16 02:16:37;;;;;;;;;;;7.70;99.90;;;;;;5068591;28;20316;-75
2022/02/16 02:19:02;;;;;;;;;;;7.70;99.90;;;;;;5082145;28;20027;-74
2022/02/16 02:21:28;;;;;;;;;;;7.70;99.90;;;;;;5062375;28;20110;-74
2022/02/16 02:23:56;;;;;;;;;;;7.80;99.90;;;;;;5072210;28;20445;-75
2022/02/16 02:26:21;;;;;;;;;;;7.80;99.90;;;;;;5055185;28;19913;-74
2022/02/16 02:28:47;;;;;;;;;;;7.70;99.90;;;;;;5073845;28;19919;-75
2022/02/16 02:31:13;;;;;;;;;;;7.70;99.90;;;;;;5063763;28;19912;-73
2022/02/16 02:33:39;;;;;;;;;;;7.70;99.90;;;;;;5067880;28;19928;-75
2022/02/16 02:36:06;;;;;;;;;;;7.70;99.90;;;;;;5052728;28;20011;-74
2022/02/16 02:38:35;;;;;;;;;;;7.70;99.90;;;;;;5073048;28;19913;-75
2022/02/16 02:41:03;;;;;;;;;;;7.60;99.90;;;;;;5060217;28;19924;-75
2022/02/16 02:43:29;;;;;;;;;;;7.70;99.90;;;;;;5065465;28;20004;-74
2022/02/16 02:45:55;;;;;;;;;;;7.80;99.90;;;;;;5073381;28;19973;-75
2022/02/16 02:48:21;;;;;;;;;;;7.70;99.90;;;;;;5050879;28;20371;-75
2022/02/16 02:50:47;;;;;;;;;;;7.70;99.90;;;;;;5064288;28;20008;-74
2022/02/16 02:53:13;;;;;;;;;;;7.60;99.90;;;;;;5056887;28;19936;-75
2022/02/16 02:55:38;;;;;;;;;;;7.60;99.90;;;;;;5064365;28;19938;-74
2022/02/16 02:58:04;;;;;;;;;;;7.60;99.90;;;;;;5071648;28;20876;-75
2022/02/16 03:00:30;;;;;;;;;;;7.60;99.90;;;;;;5073683;28;19920;-73
2022/02/16 03:02:55;;;;;;;;;;;7.60;99.90;;;;;;5059956;28;19920;-74
2022/02/16 03:05:21;;;;;;;;;;;7.70;99.90;;;;;;5074209;28;19928;-74
2022/02/16 03:07:46;;;;;;;;;;;7.70;99.90;;;;;;5075196;28;19912;-74
2022/02/16 03:10:12;;;;;;;;;;;7.70;99.90;;;;;;5066057;28;20291;-74
2022/02/16 03:12:38;;;;;;;;;;;7.70;99.90;;;;;;5059129;28;20239;-74
2022/02/16 03:15:04;;;;;;;;;;;7.80;99.90;;;;;;5064579;28;19913;-74
2022/02/16 03:17:30;;;;;;;;;;;7.80;99.90;;;;;;5062458;28;20312;-73
2022/02/16 03:19:56;;;;;;;;;;;7.90;99.90;;;;;;5059839;28;19919;-73
2022/02/16 03:22:21;;;;;;;;;;;7.80;99.90;;;;;;5068931;28;20310;-75
2022/02/16 03:24:47;;;;;;;;;;;7.80;99.90;;;;;;5053571;28;20251;-75
2022/02/16 03:27:13;;;;;;;;;;;7.70;99.90;;;;;;5065971;28;20279;-74
2022/02/16 03:29:38;;;;;;;;;;;7.60;99.90;;;;;;5073957;28;20415;-75
2022/02/16 03:32:04;;;;;;;;;;;7.60;99.90;;;;;;5069956;28;20334;-74
2022/02/16 03:34:30;;;;;;;;;;;7.60;99.90;;;;;;5063914;28;19913;-75
2022/02/16 03:36:55;;;;;;;;;;;7.50;99.90;;;;;;5071688;28;19958;-75
2022/02/16 03:39:21;;;;;;;;;;;7.40;99.90;;;;;;5062977;28;20323;-74
2022/02/16 03:41:47;;;;;;;;;;;7.40;99.90;;;;;;5073171;28;19916;-74
2022/02/16 03:44:13;;;;;;;;;;;7.40;99.90;;;;;;5071585;28;19913;-73
2022/02/16 03:46:38;;;;;;;;;;;7.40;99.90;;;;;;5064605;28;20243;-73
2022/02/16 03:49:04;;;;;;;;;;;7.50;99.90;;;;;;5068749;28;19925;-74
2022/02/16 03:51:29;;;;;;;;;;;7.50;99.90;;;;;;5072809;28;19913;-74
2022/02/16 03:53:55;;;;;;;;;;;7.50;99.90;;;;;;5061165;28;20298;-73
2022/02/16 03:56:21;;;;;;;;;;;7.50;99.90;;;;;;5070107;28;20375;-73
2022/02/16 03:58:46;;;;;;;;;;;7.40;99.90;;;;;;5064316;28;20243;-74
2022/02/16 04:01:12;;;;;;;;;;;7.40;99.90;;;;;;5055697;28;20286;-74
2022/02/16 04:03:38;;;;;;;;;;;7.40;99.90;;;;;;5072221;28;19925;-75
2022/02/16 04:06:03;;;;;;;;;;;7.40;99.90;;;;;;5063060;28;19913;-74
2022/02/16 04:08:29;;;;;;;;;;;7.30;99.90;;;;;;5067028;28;19936;-74
2022/02/16 04:10:55;;;;;;;;;;;7.20;99.90;;;;;;5059579;28;19989;-74
2022/02/16 04:13:20;;;;;;;;;;;7.10;99.90;;;;;;5063518;28;19967;-75
2022/02/16 04:15:46;;;;;;;;;;;7.20;99.90;;;;;;5074686;28;19912;-75
2022/02/16 04:18:12;;;;;;;;;;;7.20;99.90;;;;;;5080878;28;19924;-74
2022/02/16 04:20:37;;;;;;;;;;;7.20;99.90;;;;;;5078080;28;19946;-74
2022/02/16 04:23:04;;;;;;;;;;;7.30;99.90;;;;;;5066075;28;19912;-74
2022/02/16 04:25:30;;;;;;;;;;;7.30;99.90;;;;;;5073479;28;19974;-74
2022/02/16 04:27:55;;;;;;;;;;;7.30;99.90;;;;;;5075124;28;19916;-73
2022/02/16 04:30:21;;;;;;;;;;;7.30;99.90;;;;;;5073354;28;19936;-74
2022/02/16 04:32:46;;;;;;;;;;;7.20;99.90;;;;;;5079353;28;20008;-73
2022/02/16 04:35:12;;;;;;;;;;;7.20;99.90;;;;;;5062878;28;19917;-74
2022/02/16 04:37:38;;;;;;;;;;;7.10;99.90;;;;;;5066007;28;19916;-74
2022/02/16 04:40:05;;;;;;;;;;;7.10;99.90;;;;;;5078289;28;19913;-74
2022/02/16 04:42:30;;;;;;;;;;;7.10;99.90;;;;;;5079255;28;20306;-74
2022/02/16 04:44:56;;;;;;;;;;;7.00;99.90;;;;;;5068295;28;19922;-74
2022/02/16 04:47:21;;;;;;;;;;;6.90;99.90;;;;;;5073406;28;19920;-74
2022/02/16 04:49:47;;;;;;;;;;;7.00;99.90;;;;;;5067925;28;19912;-74
2022/02/16 04:52:13;;;;;;;;;;;7.10;99.90;;;;;;5063986;28;19979;-75
2022/02/16 04:54:40;;;;;;;;;;;7.00;99.90;;;;;;5072637;28;19934;-74
2022/02/16 04:57:06;;;;;;;;;;;6.90;99.90;;;;;;5065626;28;19913;-74
2022/02/16 04:59:31;;;;;;;;;;;6.90;99.90;;;;;;5075990;28;19923;-76
2022/02/16 05:01:57;;;;;;;;;;;6.80;99.90;;;;;;5061809;28;19916;-74
2022/02/16 05:04:22;;;;;;;;;;;6.80;99.90;;;;;;5063951;28;20359;-73
2022/02/16 05:06:48;;;;;;;;;;;6.90;99.90;;;;;;5066301;28;19912;-73
2022/02/16 05:09:14;;;;;;;;;;;6.90;99.90;;;;;;5070726;28;19923;-74
2022/02/16 05:11:39;;;;;;;;;;;6.80;99.90;;;;;;5074411;28;19927;-73
2022/02/16 05:14:05;;;;;;;;;;;6.80;99.90;;;;;;5072429;28;20000;-74
2022/02/16 05:16:31;;;;;;;;;;;6.70;99.90;;;;;;5067836;28;20363;-74
2022/02/16 05:19:00;;;;;;;;;;;6.70;99.90;;;;;;5063486;28;19916;-77
2022/02/16 05:21:26;;;;;;;;;;;6.60;99.90;;;;;;5051908;28;19963;-73
2022/02/16 05:23:51;;;;;;;;;;;6.50;99.90;;;;;;5065368;28;20356;-73
2022/02/16 05:26:17;;;;;;;;;;;6.50;99.90;;;;;;5063387;28;19982;-74
2022/02/16 05:28:43;;;;;;;;;;;6.50;99.90;;;;;;5072224;28;19991;-75
2022/02/16 05:31:08;;;;;;;;;;;6.50;99.90;;;;;;5067290;28;19935;-74
2022/02/16 05:33:36;;;;;;;;;;;6.40;99.90;;;;;;5072951;28;20044;-74
2022/02/16 05:36:03;;;;;;;;;;;6.40;99.90;;;;;;5066973;28;19912;-74
2022/02/16 05:38:28;;;;;;;;;;;6.30;99.90;;;;;;5070698;28;19913;-74
2022/02/16 05:40:54;;;;;;;;;;;6.20;99.90;;;;;;5079027;28;19920;-75
2022/02/16 05:43:19;;;;;;;;;;;6.20;99.90;;;;;;5065116;28;19913;-75
2022/02/16 05:45:45;;;;;;;;;;;6.10;99.90;;;;;;5066368;28;20374;-74
2022/02/16 05:48:11;;;;;;;;;;;6.10;99.90;;;;;;5072819;28;20324;-76
2022/02/16 05:50:37;;;;;;;;;;;6.20;99.90;;;;;;5062523;28;19923;-73
2022/02/16 05:53:03;;;;;;;;;;;6.10;99.90;;;;;;5065501;28;19974;-74
2022/02/16 05:55:29;;;;;;;;;;;6.10;99.90;;;;;;5080453;28;19961;-74
2022/02/16 05:57:54;;;;;;;;;;;6.10;99.90;;;;;;5070454;28;19931;-76
2022/02/16 06:00:20;;;;;;;;;;;6.00;99.90;;;;;;5072396;28;21346;-75
2022/02/16 06:02:46;;;;;;;;;;;6.00;99.90;;;;;;5062691;28;20380;-73
2022/02/16 06:05:11;;;;;;;;;;;6.00;99.90;;;;;;5075986;28;20318;-75
2022/02/16 06:07:37;;;;;;;;;;;6.00;99.90;;;;;;5057188;28;20318;-74
2022/02/16 06:10:03;;;;;;;;;;;6.00;99.90;;;;;;5058802;28;19959;-74
2022/02/16 06:12:29;;;;;;;;;;;6.00;99.90;;;;;;5076766;28;19920;-75
2022/02/16 06:14:55;;;;;;;;;;;6.00;99.90;;;;;;5060243;28;19913;-75
2022/02/16 06:17:20;;;;;;;;;;;6.00;99.90;;;;;;5076105;28;20382;-75
2022/02/16 06:19:46;;;;;;;;;;;5.90;99.90;;;;;;5075095;28;19916;-75
2022/02/16 06:22:12;;;;;;;;;;;5.80;99.90;;;;;;5077129;28;20011;-74
2022/02/16 06:24:38;;;;;;;;;;;5.80;99.90;;;;;;5068187;28;19920;-74
2022/02/16 06:27:04;;;;;;;;;;;5.80;99.90;;;;;;5074537;28;19919;-75
2022/02/16 06:29:30;;;;;;;;;;;5.80;99.90;;;;;;5059322;28;20012;-75
2022/02/16 06:31:56;;;;;;;;;;;5.80;99.90;;;;;;5072355;28;19966;-75
2022/02/16 06:34:21;;;;;;;;;;;5.80;99.90;;;;;;5082707;28;19939;-75
2022/02/16 06:36:47;;;;;;;;;;;5.90;99.90;;;;;;5070473;28;19912;-74
2022/02/16 06:39:13;;;;;;;;;;;6.00;99.90;;;;;;5076694;28;19948;-74
2022/02/16 06:41:38;;;;;;;;;;;6.10;99.90;;;;;;5074132;28;19959;-75
2022/02/16 06:44:04;;;;;;;;;;;6.10;99.90;;;;;;5059805;28;20110;-74
2022/02/16 06:46:30;;;;;;;;;;;6.00;99.90;;;;;;5070723;28;19920;-75
2022/02/16 06:48:56;;;;;;;;;;;6.00;99.90;;;;;;5056982;28;19959;-75
2022/02/16 06:51:22;;;;;;;;;;;6.00;99.90;;;;;;5073792;28;19913;-75
2022/02/16 06:53:55;;;;;;;;;;;6.10;99.90;;;;;;5066654;28;19917;-73
2022/02/16 06:56:21;;;;;;;;;;;6.10;99.90;;;;;;5079952;28;19921;-75
2022/02/16 06:58:46;;;;;;;;;;;6.10;99.90;;;;;;5078123;28;19919;-74
2022/02/16 07:01:12;;;;;;;;;;;6.20;99.90;;;;;;5061145;28;20338;-74
2022/02/16 07:03:38;;;;;;;;;;;6.20;99.90;;;;;;5074984;28;19948;-74
2022/02/16 07:06:04;;;;;;;;;;;6.20;99.90;;;;;;5075762;28;19912;-74
2022/02/16 07:08:29;;;;;;;;;;;6.30;99.90;;;;;;5071058;28;20342;-74
2022/02/16 07:10:55;;;;;;;;;;;6.50;99.90;;;;;;5069403;28;20326;-74
2022/02/16 07:13:21;;;;;;;;;;;6.50;99.90;;;;;;5065698;28;20008;-73
2022/02/16 07:15:46;;;;;;;;;;;6.60;99.90;;;;;;5069583;28;19916;-75
2022/02/16 07:18:12;;;;;;;;;;;6.80;99.90;;;;;;5077905;28;20363;-75
2022/02/16 07:20:38;;;;;;;;;;;6.90;99.90;;;;;;5070529;28;19916;-75
2022/02/16 07:23:03;;;;;;;;;;;7.00;99.90;;;;;;5072840;28;20003;-74
2022/02/16 07:25:29;;;;;;;;;;;7.10;99.90;;;;;;5064099;28;19912;-74
2022/02/16 07:27:54;;;;;;;;;;;7.00;99.90;;;;;;5081035;28;19928;-74
2022/02/16 07:30:20;;;;;;;;;;;7.00;99.90;;;;;;5081869;28;19947;-74
2022/02/16 07:32:46;;;;;;;;;;;6.90;99.90;;;;;;5076673;28;19913;-74
2022/02/16 07:35:12;;;;;;;;;;;6.90;99.90;;;;;;5063512;28;19965;-75
2022/02/16 07:37:38;;;;;;;;;;;6.90;99.90;;;;;;5066918;28;19993;-74
2022/02/16 07:40:04;;;;;;;;;;;7.00;99.90;;;;;;5078210;28;20500;-76
2022/02/16 07:42:30;;;;;;;;;;;7.10;99.90;;;;;;5081828;28;19916;-74
2022/02/16 07:44:56;;;;;;;;;;;7.20;99.90;;;;;;5059900;28;19939;-75
2022/02/16 07:47:22;;;;;;;;;;;7.20;99.90;;;;;;5077397;28;19932;-74
2022/02/16 07:49:48;;;;;;;;;;;7.20;99.90;;;;;;5058878;28;19924;-74
2022/02/16 07:52:14;;;;;;;;;;;7.30;99.90;;;;;;5064730;28;19916;-76
2022/02/16 07:54:43;;;;;;;;;;;7.40;99.90;;;;;;5083893;28;20412;-74
2022/02/16 07:57:08;;;;;;;;;;;7.50;99.90;;;;;;5067276;28;20026;-74
2022/02/16 07:59:35;;;;;;;;;;;7.60;99.90;;;;;;5084106;28;20469;-74
2022/02/16 08:02:02;;;;;;;;;;;7.70;99.90;;;;;;5068115;28;19916;-75
2022/02/16 08:04:30;;;;;;;;;;;7.70;99.90;;;;;;5078591;28;19923;-75
2022/02/16 08:07:18;;;;;;;;;;;7.80;99.90;;;;;;5082483;28;19909;-77
2022/02/16 08:09:44;;;;;;;;;;;7.80;99.90;;;;;;5054495;28;19940;-77
2022/02/16 08:12:12;;;;;;;;;;;8.00;99.90;;;;;;5080908;28;19912;-75
2022/02/16 08:14:38;;;;;;;;;;;8.10;99.90;;;;;;5065990;28;20382;-76
2022/02/16 08:17:04;;;;;;;;;;;8.20;99.90;;;;;;5078779;28;20004;-75
2022/02/16 08:19:30;;;;;;;;;;;8.30;99.90;;;;;;5063367;28;19917;-75
2022/02/16 08:21:57;;;;;;;;;;;8.40;99.90;;;;;;5068896;28;19924;-76
2022/02/16 08:24:26;;;;;;;;;;;8.50;99.90;;;;;;5073978;28;19960;-75
2022/02/16 08:26:52;;;;;;;;;;;8.50;99.90;;;;;;5063574;28;19913;-74
2022/02/16 08:29:32;;;;;;;;;;;8.50;99.90;;;;;;5076765;28;19928;-75
2022/02/16 08:32:00;;;;;;;;;;;8.50;99.90;;;;;;5056636;28;20355;-75
2022/02/16 08:34:26;;;;;;;;;;;8.60;99.90;;;;;;5068223;28;19912;-75
2022/02/16 08:36:55;;;;;;;;;;;8.60;99.90;;;;;;5070493;28;19976;-74
2022/02/16 08:39:24;;;;;;;;;;;8.50;99.90;;;;;;5080451;28;19943;-73
2022/02/16 08:41:50;;;;;;;;;;;8.60;99.90;;;;;;5069530;28;19912;-69
2022/02/16 08:44:16;;;;;;;;;;;8.70;99.90;;;;;;5074411;28;19912;-68
2022/02/16 08:46:41;;;;;;;;;;;8.80;99.90;;;;;;5067494;28;19918;-67
2022/02/16 08:49:07;;;;;;;;;;;8.90;99.90;;;;;;5088617;28;20015;-67
2022/02/16 08:51:33;;;;;;;;;;;9.20;99.90;;;;;;5075819;28;19913;-66
2022/02/16 08:53:59;;;;;;;;;;;9.30;99.90;;;;;;5077209;28;19912;-66
2022/02/16 08:56:25;;;;;;;;;;;9.50;99.90;;;;;;5065865;28;19920;-66
2022/02/16 08:58:51;;;;;;;;;;;9.60;99.90;;;;;;5084388;28;19957;-65
2022/02/16 09:01:17;;;;;;;;;;;9.70;99.90;;;;;;5073953;28;19936;-65
2022/02/16 09:03:42;;;;;;;;;;;9.80;99.90;;;;;;5062674;28;19913;-67
2022/02/16 09:06:10;;;;;;;;;;;9.90;99.90;;;;;;5066777;28;19913;-66
2022/02/16 09:08:36;;;;;;;;;;;10.00;99.90;;;;;;5088789;28;19908;-69
2022/02/16 09:11:01;;;;;;;;;;;10.00;99.90;;;;;;5091186;28;19919;-70
2022/02/16 09:13:27;;;;;;;;;;;9.90;99.90;;;;;;5091988;28;20344;-70
2022/02/16 09:15:53;;;;;;;;;;;10.00;99.90;;;;;;5061747;28;20282;-65
2022/02/16 09:18:18;;;;;;;;;;;9.90;99.90;;;;;;5067663;28;20543;-65
2022/02/16 09:20:46;;;;;;;;;;;10.00;99.90;;;;;;5077930;28;19920;-65
2022/02/16 09:23:15;;;;;;;;;;;10.10;99.90;;;;;;5066014;28;19954;-67
2022/02/16 09:25:41;;;;;;;;;;;10.20;99.90;;;;;;5073119;28;19959;-66
2022/02/16 09:28:07;;;;;;;;;;;10.20;99.90;;;;;;5078776;28;19956;-66
2022/02/16 09:30:33;;;;;;;;;;;10.20;99.90;;;;;;5074536;28;19919;-66
2022/02/16 09:32:58;;;;;;;;;;;10.20;99.90;;;;;;5077886;28;20011;-67
2022/02/16 09:35:24;;;;;;;;;;;10.20;99.90;;;;;;5075973;28;20008;-69
2022/02/16 09:37:50;;;;;;;;;;;10.30;99.90;;;;;;5073585;28;19920;-67
2022/02/16 09:40:16;;;;;;;;;;;10.30;99.90;;;;;;5079572;28;19913;-66
2022/02/16 09:42:41;;;;;;;;;;;10.40;99.90;;;;;;5067052;28;19912;-66
2022/02/16 09:45:10;;;;;;;;;;;10.30;99.90;;;;;;5065884;28;19913;-66
2022/02/16 09:47:38;;;;;;;;;;;10.10;99.90;;;;;;5078022;28;20019;-66
2022/02/16 09:50:06;;;;;;;;;;;10.10;99.90;;;;;;5057905;28;20006;-66
2022/02/16 09:52:32;;;;;;;;;;;10.10;99.90;;;;;;5076674;28;19932;-67
2022/02/16 09:54:58;;;;;;;;;;;10.10;99.90;;;;;;5073592;28;19913;-66
2022/02/16 09:57:24;;;;;;;;;;;10.10;99.90;;;;;;5075209;28;19944;-66
2022/02/16 09:59:50;;;;;;;;;;;10.10;99.90;;;;;;5081751;28;19924;-66
2022/02/16 10:02:16;;;;;;;;;;;10.10;99.90;;;;;;5077506;28;19917;-66
2022/02/16 10:04:58;;;;;;;;;;;10.00;99.90;;;;;;5072687;28;19996;-66
2022/02/16 10:07:25;;;;;;;;;;;9.80;99.90;;;;;;5073681;28;20007;-66
2022/02/16 10:09:51;;;;;;;;;;;9.70;99.90;;;;;;5073591;28;19928;-67
2022/02/16 10:12:16;;;;;;;;;;;9.70;99.90;;;;;;5070901;28;20369;-66
2022/02/16 10:14:42;;;;;;;;;;;9.60;99.90;;;;;;5075057;28;19913;-66
2022/02/16 10:17:17;;;;;;;;;;;9.60;99.90;;;;;;5057439;28;20007;-67
2022/02/16 10:19:47;;;;;;;;;;;9.70;99.90;;;;;;5069570;28;19974;-66
2022/02/16 10:22:13;;;;;;;;;;;9.60;99.90;;;;;;5063291;28;19947;-67
2022/02/16 10:24:38;;;;;;;;;;;9.50;99.90;;;;;;5073923;28;20405;-67
2022/02/16 10:27:05;;;;;;;;;;;9.40;99.90;;;;;;5062750;28;20393;-67
2022/02/16 10:29:31;;;;;;;;;;;9.30;99.90;;;;;;5078862;28;20036;-66
2022/02/16 10:31:58;;;;;;;;;;;9.30;99.90;;;;;;5079370;28;19942;-67
2022/02/16 10:34:43;;;;;;;;;;;9.30;99.90;;;;;;5061196;28;19923;-64
2022/02/16 10:37:10;;;;;;;;;;;9.20;99.90;;;;;;5075624;28;19913;-65
2022/02/16 10:39:36;;;;;;;;;;;9.00;99.90;;;;;;5063807;28;19920;-65
2022/02/16 10:42:02;;;;;;;;;;;8.90;99.90;;;;;;5077426;28;19920;-66
2022/02/16 10:44:31;;;;;;;;;;;8.80;99.90;;;;;;5072532;28;20294;-66
2022/02/16 10:47:07;;;;;;;;;;;8.80;99.90;;;;;;5076396;28;19995;-68
2022/02/16 10:49:37;;;;;;;;;;;8.90;99.90;;;;;;5070190;28;19919;-68
2022/02/16 10:52:05;;;;;;;;;;;8.80;99.90;;;;;;5073095;28;20394;-67
2022/02/16 10:54:31;;;;;;;;;;;8.90;99.90;;;;;;5077502;28;20351;-66
2022/02/16 10:56:56;;;;;;;;;;;8.80;99.90;;;;;;5073712;28;19995;-65
2022/02/16 10:59:23;;;;;;;;;;;8.80;99.90;;;;;;5070944;28;19916;-68
2022/02/16 11:01:48;;;;;;;;;;;8.90;99.90;;;;;;5068983;28;19931;-67
2022/02/16 11:04:15;;;;;;;;;;;9.00;99.90;;;;;;5062540;28;20020;-65
2022/02/16 11:06:42;;;;;;;;;;;8.90;99.90;;;;;;5072403;28;19912;-67
2022/02/16 11:09:15;;;;;;;;;;;8.90;99.90;;;;;;5070100;28;19926;-66
2022/02/16 11:11:41;;;;;;;;;;;9.00;99.90;;;;;;5068850;28;19932;-66
2022/02/16 11:14:08;;;;;;;;;;;9.10;99.90;;;;;;5071199;28;19913;-66
2022/02/16 11:16:34;;;;;;;;;;;9.20;99.90;;;;;;5080538;28;19919;-69
2022/02/16 11:19:00;;;;;;;;;;;9.20;99.90;;;;;;5074545;28;19917;-66
2022/02/16 11:21:28;;;;;;;;;;;9.20;99.90;;;;;;5073553;28;19928;-66
2022/02/16 11:23:56;;;;;;;;;;;9.10;99.90;;;;;;5064556;28;20388;-69
2022/02/16 11:26:34;;;;;;;;;;;9.10;99.90;;;;;;5053771;28;19952;-69
2022/02/16 11:29:01;;;;;;;;;;;9.20;99.90;;;;;;5074605;28;20000;-65
2022/02/16 11:31:33;;;;;;;;;;;9.20;99.90;;;;;;5051926;28;19928;-66
2022/02/16 11:34:11;;;;;;;;;;;9.50;99.90;;;;;;5066250;28;19962;-67
2022/02/16 11:36:55;;;;;;;;;;;9.60;99.90;;;;;;5056514;28;19948;-67
2022/02/16 11:39:43;;;;;;;;;;;9.70;99.90;;;;;;5064613;28;19921;-66
2022/02/16 11:42:10;;;;;;;;;;;9.60;99.90;;;;;;5065209;28;19924;-65
2022/02/16 11:44:51;;;;;;;;;;;9.60;99.90;;;;;;5072730;28;19913;-68
2022/02/16 11:47:41;;;;;;;;;;;9.70;99.90;;;;;;5054287;28;19943;-66
2022/02/16 11:50:13;;;;;;;;;;;9.70;99.90;;;;;;5051940;28;19912;-67
2022/02/16 11:52:39;;;;;;;;;;;9.70;99.90;;;;;;5058440;28;20313;-67
2022/02/16 11:55:05;;;;;;;;;;;9.70;99.90;;;;;;5064453;28;19912;-68
2022/02/16 11:57:42;;;;;;;;;;;9.80;99.90;;;;;;5063039;28;19952;-67
2022/02/16 12:00:11;;;;;;;;;;;9.70;99.90;;;;;;5060931;28;19970;-66
2022/02/16 12:03:02;;;;;;;;;;;9.90;99.90;;;;;;5059107;28;20102;-66
2022/02/16 12:05:41;;;;;;;;;;;9.90;99.90;;;;;;5036164;28;19919;-66
2022/02/16 12:08:14;;;;;;;;;;;9.80;99.90;;;;;;5056681;28;19936;-66
2022/02/16 12:10:40;;;;;;;;;;;9.80;99.90;;;;;;5049370;28;19912;-67
2022/02/16 12:13:06;;;;;;;;;;;9.70;99.90;;;;;;5059402;28;19975;-67
2022/02/16 12:15:32;;;;;;;;;;;9.80;99.90;;;;;;5075978;28;20023;-67
2022/02/16 12:17:58;;;;;;;;;;;9.80;99.90;;;;;;5073505;28;19970;-67
2022/02/16 12:20:24;;;;;;;;;;;9.90;99.90;;;;;;5065991;28;19920;-66
2022/02/16 12:22:50;;;;;;;;;;;9.90;99.90;;;;;;5073040;28;19909;-66
2022/02/16 12:25:16;;;;;;;;;;;9.90;99.90;;;;;;5060163;28;19921;-67
2022/02/16 12:27:42;;;;;;;;;;;9.80;99.90;;;;;;5065321;28;19970;-66
2022/02/16 12:30:08;;;;;;;;;;;9.70;99.90;;;;;;5058521;28;20378;-66
2022/02/16 12:32:34;;;;;;;;;;;9.70;99.90;;;;;;5067558;28;20046;-68
2022/02/16 12:35:04;;;;;;;;;;;9.80;99.90;;;;;;5080063;28;19970;-66
2022/02/16 12:37:29;;;;;;;;;;;10.10;99.90;;;;;;5072914;28;19913;-66
2022/02/16 12:39:58;;;;;;;;;;;10.10;99.90;;;;;;5070500;28;19932;-67
2022/02/16 12:42:44;;;;;;;;;;;10.10;99.90;;;;;;5062959;28;19916;-67
2022/02/16 12:45:16;;;;;;;;;;;10.20;99.90;;;;;;5078992;28;19979;-66
2022/02/16 12:47:42;;;;;;;;;;;10.20;99.90;;;;;;5064464;28;19920;-67
2022/02/16 12:50:09;;;;;;;;;;;10.20;99.90;;;;;;5075117;28;20408;-67
2022/02/16 12:52:34;;;;;;;;;;;10.10;99.90;;;;;;5081725;28;19926;-67
2022/02/16 12:55:02;;;;;;;;;;;9.80;99.90;;;;;;5072530;28;20015;-70
2022/02/16 12:57:28;;;;;;;;;;;9.80;99.90;;;;;;5073019;28;20325;-70
2022/02/16 13:02:43;;;;;;;;;;;9.60;99.90;;;;;;5064005;28;19927;-70
2022/02/16 13:05:08;;;;;;;;;;;9.50;99.90;;;;;;5070202;28;19916;-68
2022/02/16 13:07:35;;;;;;;;;;;9.40;99.90;;;;;;5068729;28;19955;-68
2022/02/16 13:10:01;;;;;;;;;;;9.20;99.90;;;;;;5088603;28;19912;-69
2022/02/16 13:12:44;;;;;;;;;;;9.10;99.90;;;;;;5077468;28;20302;-69
2022/02/16 13:15:12;;;;;;;;;;;8.90;99.90;;;;;;5067681;28;20370;-67
2022/02/16 13:17:43;;;;;;;;;;;8.80;99.90;;;;;;5078659;28;20412;-69
2022/02/16 13:20:14;;;;;;;;;;;8.80;99.90;;;;;;5082059;28;20433;-69
2022/02/16 13:23:02;;;;;;;;;;;8.90;99.90;;;;;;5058385;28;19920;-68
2022/02/16 13:25:28;;;;;;;;;;;8.90;99.90;;;;;;5073982;28;20014;-68
2022/02/16 13:27:54;;;;;;;;;;;9.20;99.90;;;;;;5064225;28;19948;-67
2022/02/16 13:30:23;;;;;;;;;;;9.30;99.90;;;;;;5068168;28;19913;-68
2022/02/16 13:32:50;;;;;;;;;;;9.30;99.90;;;;;;5082758;28;20393;-68
2022/02/16 13:35:26;;;;;;;;;;;9.40;99.90;;;;;;5075727;28;19924;-67
2022/02/16 13:38:12;;;;;;;;;;;9.50;99.90;;;;;;5064676;28;19912;-68
2022/02/16 13:41:01;;;;;;;;;;;9.50;99.90;;;;;;5064236;28;19916;-67
2022/02/16 13:43:47;;;;;;;;;;;9.50;99.90;;;;;;5065058;28;19959;-67
2022/02/16 13:46:14;;;;;;;;;;;9.50;99.90;;;;;;5059382;28;19913;-66
2022/02/16 13:48:39;;;;;;;;;;;9.50;99.90;;;;;;5075106;28;19917;-70
2022/02/16 13:51:09;;;;;;;;;;;9.60;99.90;;;;;;5064270;28;20528;-65
2022/02/16 13:53:35;;;;;;;;;;;9.50;99.90;;;;;;5077005;28;19924;-67
2022/02/16 13:56:01;;;;;;;;;;;9.50;99.90;;;;;;5074725;28;19912;-68
2022/02/16 13:58:29;;;;;;;;;;;9.30;99.90;;;;;;5072508;28;19912;-67
2022/02/16 14:01:02;;;;;;;;;;;9.20;99.90;;;;;;5062691;28;19967;-67
2022/02/16 14:03:28;;;;;;;;;;;9.20;99.90;;;;;;5071330;28;20362;-68
2022/02/16 14:05:55;;;;;;;;;;;9.10;99.90;;;;;;5064057;28;19931;-66
2022/02/16 14:08:21;;;;;;;;;;;9.10;99.90;;;;;;5074534;28;20003;-68
2022/02/16 14:10:46;;;;;;;;;;;9.20;99.90;;;;;;5062045;28;19974;-67
2022/02/16 14:13:13;;;;;;;;;;;9.10;99.90;;;;;;5075618;28;19962;-67
2022/02/16 14:15:39;;;;;;;;;;;9.10;99.90;;;;;;5066573;28;19913;-67
2022/02/16 14:18:12;;;;;;;;;;;9.00;99.90;;;;;;5073005;28;19966;-68
2022/02/16 14:20:41;;;;;;;;;;;9.00;99.90;;;;;;5059642;28;20023;-69
2022/02/16 14:23:11;;;;;;;;;;;9.00;99.90;;;;;;5071716;28;19951;-69
2022/02/16 14:25:48;;;;;;;;;;;9.00;99.90;;;;;;5062860;28;19928;-67
2022/02/16 14:28:27;;;;;;;;;;;9.00;99.90;;;;;;5058331;28;19919;-68
2022/02/16 14:30:56;;;;;;;;;;;8.90;99.90;;;;;;5070526;28;20362;-68